Time;durP1;ratioP1;P1;durP2;ratioP2;P2;SDS_P1;SDS_P2;PMS_P1;PMS_P2;Temp;Humidity;BMP_temperature;BMP_pressure;BME280_temperature;BME280_humidity;BME280_pressure;Samples;Min_cycle;Max_cycle;Signal;HPM_P1;HPM_P2
2023/06/14 00:00:20;;;;;;;9.23;5.07;;;21.90;78.20;;;;;;7281972;19;20193;-79
2023/06/14 00:02:46;;;;;;;11.17;5.90;;;21.80;78.80;;;;;;7280728;19;20204;-79
2023/06/14 00:05:12;;;;;;;11.63;5.70;;;21.70;79.90;;;;;;7303228;19;20215;-79
2023/06/14 00:07:42;;;;;;;10.95;6.07;;;21.50;82.30;;;;;;7282593;19;20256;-79
2023/06/14 00:10:09;;;;;;;8.73;5.05;;;21.40;84.80;;;;;;7288442;19;20197;-79
2023/06/14 00:12:36;;;;;;;8.90;5.40;;;21.30;85.40;;;;;;7287925;19;20176;-79
2023/06/14 00:15:02;;;;;;;12.50;6.38;;;21.30;85.10;;;;;;7287860;19;20192;-79
2023/06/14 00:17:31;;;;;;;10.13;5.97;;;21.30;86.50;;;;;;7288037;19;20189;-79
2023/06/14 00:20:00;;;;;;;11.53;5.60;;;21.10;87.00;;;;;;7289565;19;20268;-79
2023/06/14 00:22:28;;;;;;;10.80;5.97;;;21.00;87.80;;;;;;7289234;19;20569;-79
2023/06/14 00:24:54;;;;;;;12.83;6.20;;;21.00;89.00;;;;;;7288439;19;20192;-79
2023/06/14 00:27:20;;;;;;;10.30;5.83;;;21.00;88.00;;;;;;7289042;19;20185;-79
2023/06/14 00:29:45;;;;;;;10.73;5.93;;;21.00;88.70;;;;;;7287746;19;20188;-78
2023/06/14 00:32:11;;;;;;;12.17;6.53;;;21.00;88.90;;;;;;7310641;19;21375;-79
2023/06/14 00:34:37;;;;;;;10.77;5.68;;;21.00;89.60;;;;;;7288030;19;20185;-80
2023/06/14 00:37:03;;;;;;;11.27;5.90;;;21.00;89.60;;;;;;7288362;19;20197;-79
2023/06/14 00:39:28;;;;;;;11.07;6.20;;;21.00;90.10;;;;;;7286468;19;20180;-79
2023/06/14 00:41:55;;;;;;;12.60;6.37;;;20.80;91.70;;;;;;7287888;19;20181;-79
2023/06/14 00:44:21;;;;;;;12.57;6.33;;;20.70;92.70;;;;;;7288879;19;20188;-79
2023/06/14 00:46:47;;;;;;;10.00;6.30;;;20.60;93.10;;;;;;7289659;19;20302;-79
2023/06/14 00:49:15;;;;;;;11.50;6.30;;;20.50;93.50;;;;;;7291041;19;20653;-78
2023/06/14 00:51:42;;;;;;;11.63;6.07;;;20.40;94.40;;;;;;7309472;19;20196;-79
2023/06/14 00:54:08;;;;;;;11.27;6.23;;;20.40;94.90;;;;;;7287458;19;20201;-79
2023/06/14 00:56:37;;;;;;;10.57;6.10;;;20.40;95.30;;;;;;7288671;19;20212;-79
2023/06/14 00:59:03;;;;;;;9.33;6.00;;;20.30;95.80;;;;;;7287037;19;20201;-79
2023/06/14 01:01:34;;;;;;;12.43;6.43;;;20.20;96.70;;;;;;7286774;19;20197;-79
2023/06/14 01:04:01;;;;;;;10.63;6.40;;;20.20;97.10;;;;;;7287720;19;20252;-79
2023/06/14 01:06:41;;;;;;;10.67;6.30;;;20.20;97.70;;;;;;7286905;19;20197;-79
2023/06/14 01:09:17;;;;;;;12.27;7.00;;;20.10;98.10;;;;;;7287069;19;20648;-79
2023/06/14 01:12:00;;;;;;;11.60;6.60;;;20.10;98.90;;;;;;7284533;19;20184;-77
2023/06/14 01:14:28;;;;;;;11.00;6.10;;;20.20;99.30;;;;;;7288118;19;20180;-79
2023/06/14 01:16:55;;;;;;;10.53;6.00;;;20.20;99.90;;;;;;7287152;19;20648;-79
2023/06/14 01:19:25;;;;;;;11.93;6.63;;;20.10;99.90;;;;;;7286844;19;20181;-79
2023/06/14 01:21:52;;;;;;;11.57;6.40;;;20.20;99.90;;;;;;7287130;19;20193;-79
2023/06/14 01:24:25;;;;;;;10.47;6.70;;;20.20;99.90;;;;;;7286608;19;20256;-79
2023/06/14 01:26:56;;;;;;;12.87;6.77;;;20.20;99.90;;;;;;7286761;19;20644;-78
2023/06/14 01:29:27;;;;;;;11.70;6.90;;;20.10;99.90;;;;;;7285282;19;20197;-79
2023/06/14 01:31:54;;;;;;;13.50;7.20;;;20.20;99.90;;;;;;7285076;19;20272;-78
2023/06/14 01:34:20;;;;;;;10.67;6.47;;;20.20;99.90;;;;;;7285430;19;20644;-78
2023/06/14 01:36:47;;;;;;;10.83;6.27;;;20.10;99.90;;;;;;7284569;19;20600;-78
2023/06/14 01:39:15;;;;;;;10.03;6.27;;;20.10;99.90;;;;;;7299589;19;20184;-79
2023/06/14 01:41:43;;;;;;;11.73;6.60;;;20.00;99.90;;;;;;7309127;19;20181;-79
2023/06/14 01:44:09;;;;;;;12.87;6.83;;;20.00;99.90;;;;;;7287978;19;20196;-79
2023/06/14 01:46:36;;;;;;;13.83;6.53;;;20.00;99.90;;;;;;7286957;19;20191;-79
2023/06/14 01:49:02;;;;;;;12.13;6.47;;;20.00;99.90;;;;;;7286895;19;20621;-79
2023/06/14 01:51:28;;;;;;;14.63;6.73;;;19.90;99.90;;;;;;7286375;19;20222;-79
2023/06/14 01:53:53;;;;;;;10.23;6.57;;;19.90;99.90;;;;;;7286479;19;20260;-79
2023/06/14 01:56:19;;;;;;;12.43;6.63;;;19.80;99.90;;;;;;7286626;19;20647;-78
2023/06/14 01:58:48;;;;;;;11.20;6.50;;;19.70;99.90;;;;;;7285818;19;20181;-78
2023/06/14 02:01:16;;;;;;;12.30;6.57;;;19.80;99.90;;;;;;7292597;19;20289;-78
2023/06/14 02:03:42;;;;;;;10.97;6.80;;;19.90;99.90;;;;;;7310077;19;20204;-78
2023/06/14 02:06:08;;;;;;;12.77;6.47;;;19.90;99.90;;;;;;7287515;19;20185;-78
2023/06/14 02:08:33;;;;;;;12.17;6.70;;;20.00;99.90;;;;;;7288549;19;20219;-79
2023/06/14 02:11:00;;;;;;;11.70;6.30;;;19.80;99.90;;;;;;7285897;19;20191;-78
2023/06/14 02:13:26;;;;;;;13.20;6.80;;;19.70;99.90;;;;;;7285387;19;20328;-78
2023/06/14 02:15:54;;;;;;;15.73;6.60;;;19.60;99.90;;;;;;7285129;19;20638;-78
2023/06/14 02:18:21;;;;;;;14.03;6.23;;;19.60;99.90;;;;;;7285649;19;20185;-79
2023/06/14 02:20:47;;;;;;;10.13;6.60;;;19.60;99.90;;;;;;7285454;19;20662;-78
2023/06/14 02:23:13;;;;;;;13.27;6.60;;;19.60;99.90;;;;;;7305406;19;20310;-77
2023/06/14 02:25:40;;;;;;;10.57;6.47;;;19.50;99.90;;;;;;7297545;19;20181;-78
2023/06/14 02:28:07;;;;;;;11.77;6.27;;;19.40;99.90;;;;;;7285573;19;20188;-78
2023/06/14 02:30:32;;;;;;;13.37;6.60;;;19.50;99.90;;;;;;7284199;19;20205;-78
2023/06/14 02:32:59;;;;;;;11.23;6.63;;;19.50;99.90;;;;;;7284128;19;20183;-78
2023/06/14 02:35:26;;;;;;;10.03;6.40;;;19.50;99.90;;;;;;7284186;19;20252;-78
2023/06/14 02:37:52;;;;;;;11.73;6.83;;;19.40;99.90;;;;;;7284880;19;20220;-77
2023/06/14 02:40:19;;;;;;;11.90;6.93;;;19.40;99.90;;;;;;7285645;19;20192;-78
2023/06/14 02:42:45;;;;;;;10.90;6.70;;;19.30;99.90;;;;;;7283811;19;20204;-78
2023/06/14 02:45:11;;;;;;;11.70;6.83;;;19.30;99.90;;;;;;7306007;19;20255;-78
2023/06/14 02:47:37;;;;;;;11.87;6.67;;;19.50;99.90;;;;;;7284614;19;20265;-79
2023/06/14 02:50:03;;;;;;;10.73;6.63;;;19.50;99.90;;;;;;7284371;19;20525;-78
2023/06/14 02:52:29;;;;;;;12.33;6.80;;;19.40;99.90;;;;;;7283876;19;20212;-79
2023/06/14 02:54:55;;;;;;;10.73;6.93;;;19.40;99.90;;;;;;7284673;19;20192;-78
2023/06/14 02:57:21;;;;;;;12.97;6.43;;;19.40;99.90;;;;;;7283769;19;20195;-78
2023/06/14 02:59:47;;;;;;;11.03;6.63;;;19.40;99.90;;;;;;7284459;19;20192;-79
2023/06/14 03:02:13;;;;;;;12.13;7.30;;;19.30;99.90;;;;;;7296121;19;20181;-79
2023/06/14 03:04:40;;;;;;;14.47;6.90;;;19.30;99.90;;;;;;7304275;19;20200;-79
2023/06/14 03:07:10;;;;;;;12.83;7.40;;;19.20;99.90;;;;;;7284586;19;20185;-79
2023/06/14 03:09:39;;;;;;;14.17;7.07;;;19.30;99.90;;;;;;7284333;19;20204;-78
2023/06/14 03:12:09;;;;;;;14.07;6.87;;;19.40;99.90;;;;;;7283353;19;20185;-78
2023/06/14 03:14:35;;;;;;;11.97;6.77;;;19.40;99.90;;;;;;7284270;19;20180;-77
2023/06/14 03:17:04;;;;;;;16.07;6.97;;;19.40;99.90;;;;;;7282439;19;20297;-78
2023/06/14 03:19:31;;;;;;;12.60;7.00;;;19.40;99.90;;;;;;7282678;19;20181;-77
2023/06/14 03:21:58;;;;;;;10.90;6.93;;;19.40;99.90;;;;;;7285098;19;20177;-79
2023/06/14 03:24:27;;;;;;;15.13;7.13;;;19.40;99.90;;;;;;7283282;19;20203;-78
2023/06/14 03:26:54;;;;;;;13.50;7.00;;;19.30;99.90;;;;;;7282506;19;20256;-78
2023/06/14 03:29:20;;;;;;;12.07;6.70;;;19.30;99.90;;;;;;7283019;19;20191;-78
2023/06/14 03:32:00;;;;;;;12.67;6.97;;;19.20;99.90;;;;;;7282747;19;20196;-78
2023/06/14 03:34:33;;;;;;;15.10;7.03;;;19.00;99.90;;;;;;7283508;19;20189;-78
2023/06/14 03:36:59;;;;;;;13.90;7.17;;;18.90;99.90;;;;;;7282987;19;20547;-78
2023/06/14 03:39:24;;;;;;;12.53;7.47;;;18.80;99.90;;;;;;7281886;19;20181;-79
2023/06/14 03:41:50;;;;;;;12.67;7.30;;;18.70;99.90;;;;;;7281912;19;20207;-78
2023/06/14 03:44:18;;;;;;;14.10;7.13;;;18.60;99.90;;;;;;7288583;19;20181;-78
2023/06/14 03:46:44;;;;;;;12.13;7.43;;;18.50;99.90;;;;;;7300949;19;20603;-78
2023/06/14 03:49:11;;;;;;;11.97;7.00;;;18.50;99.90;;;;;;7312253;19;20636;-78
2023/06/14 03:51:37;;;;;;;14.80;7.50;;;18.50;99.90;;;;;;7288615;19;20714;-78
2023/06/14 03:54:03;;;;;;;13.97;7.00;;;18.50;99.90;;;;;;7289785;19;20197;-78
2023/06/14 03:56:29;;;;;;;14.17;7.33;;;18.40;99.90;;;;;;7290441;19;20199;-79
2023/06/14 03:58:55;;;;;;;14.50;7.17;;;18.50;99.90;;;;;;7289751;19;20503;-78
2023/06/14 04:01:29;;;;;;;12.70;7.37;;;18.40;99.90;;;;;;7288946;19;20640;-78
2023/06/14 04:03:57;;;;;;;14.07;7.10;;;18.40;99.90;;;;;;7288545;19;20191;-79
2023/06/14 04:06:31;;;;;;;13.00;7.87;;;18.50;99.90;;;;;;7287743;19;20196;-78
2023/06/14 04:09:01;;;;;;;12.63;7.67;;;18.50;99.90;;;;;;7289250;19;20558;-78
2023/06/14 04:11:27;;;;;;;13.80;7.70;;;18.50;99.90;;;;;;7288080;19;20224;-78
2023/06/14 04:13:53;;;;;;;13.73;7.73;;;18.60;99.90;;;;;;7289244;19;20292;-78
2023/06/14 04:16:20;;;;;;;16.07;7.40;;;18.70;99.90;;;;;;7290035;19;20560;-78
2023/06/14 04:18:48;;;;;;;14.40;7.50;;;18.70;99.90;;;;;;7289017;19;20193;-78
2023/06/14 04:21:14;;;;;;;11.60;7.10;;;18.70;99.90;;;;;;7292057;19;20200;-78
2023/06/14 04:23:43;;;;;;;13.37;7.60;;;18.70;99.90;;;;;;7310865;19;20180;-79
2023/06/14 04:26:10;;;;;;;12.73;7.50;;;18.80;99.90;;;;;;7289519;19;20634;-78
2023/06/14 04:28:40;;;;;;;12.27;7.37;;;18.90;99.90;;;;;;7289630;19;20185;-78
2023/06/14 04:31:08;;;;;;;14.90;7.63;;;19.40;99.90;;;;;;7288497;19;20683;-78
2023/06/14 04:33:44;;;;;;;12.63;6.97;;;20.30;99.90;;;;;;7288695;19;20185;-78
2023/06/14 04:36:13;;;;;;;17.40;8.07;;;21.20;99.90;;;;;;7287293;19;20192;-78
2023/06/14 04:38:41;;;;;;;17.03;7.70;;;22.20;99.90;;;;;;7289339;19;20181;-79
2023/06/14 04:41:11;;;;;;;14.00;7.50;;;22.90;99.90;;;;;;7288549;19;20193;-79
2023/06/14 04:43:38;;;;;;;11.47;6.57;;;23.60;99.90;;;;;;7287325;19;20189;-78
2023/06/14 04:46:10;;;;;;;13.18;7.45;;;23.90;99.90;;;;;;7287601;19;20211;-79
2023/06/14 04:48:39;;;;;;;12.32;7.35;;;24.20;99.90;;;;;;7288387;19;20281;-79
2023/06/14 04:51:05;;;;;;;14.15;7.28;;;24.90;99.90;;;;;;7288208;19;21098;-78
2023/06/14 04:53:31;;;;;;;11.88;6.68;;;25.30;99.90;;;;;;7287013;19;20641;-78
2023/06/14 04:55:57;;;;;;;10.82;7.10;;;26.00;99.90;;;;;;7286460;19;20197;-79
2023/06/14 04:58:23;;;;;;;17.30;7.75;;;26.40;99.90;;;;;;7286665;19;20205;-79
2023/06/14 05:00:49;;;;;;;12.82;6.75;;;26.90;97.70;;;;;;7286844;19;20217;-79
2023/06/14 05:03:15;;;;;;;14.32;6.68;;;27.10;96.70;;;;;;7288635;19;20280;-79
2023/06/14 05:05:41;;;;;;;13.50;7.40;;;27.70;95.60;;;;;;7308648;19;20201;-82
2023/06/14 05:08:08;;;;;;;14.10;7.22;;;28.60;93.10;;;;;;7287831;19;20181;-79
2023/06/14 05:10:35;;;;;;;13.50;7.22;;;29.00;91.40;;;;;;7288322;19;20205;-79
2023/06/14 05:13:02;;;;;;;15.32;6.47;;;29.80;89.80;;;;;;7287443;19;20309;-80
2023/06/14 05:15:29;;;;;;;14.60;7.68;;;30.20;86.80;;;;;;7288414;19;20184;-80
2023/06/14 05:17:55;;;;;;;12.63;7.53;;;30.80;83.20;;;;;;7288525;19;20180;-80
2023/06/14 05:20:26;;;;;;;14.45;7.57;;;30.80;78.80;;;;;;7288939;19;20189;-80
2023/06/14 05:22:56;;;;;;;10.15;6.70;;;31.00;76.70;;;;;;7287880;19;20198;-80
2023/06/14 05:25:22;;;;;;;13.90;7.70;;;31.10;77.50;;;;;;7287824;19;20543;-80
2023/06/14 05:27:48;;;;;;;11.43;7.07;;;31.50;75.00;;;;;;7286202;19;20189;-79
2023/06/14 05:30:15;;;;;;;15.13;7.40;;;31.40;72.60;;;;;;7293399;19;20204;-77
2023/06/14 05:32:41;;;;;;;10.52;7.03;;;31.80;72.30;;;;;;7309122;19;20188;-78
2023/06/14 05:35:07;;;;;;;11.45;6.70;;;30.80;73.00;;;;;;7287216;19;20253;-79
2023/06/14 05:37:33;;;;;;;14.80;7.50;;;31.10;73.10;;;;;;7291015;19;20197;-79
2023/06/14 05:39:59;;;;;;;14.25;7.50;;;31.40;71.70;;;;;;7293536;19;20545;-78
2023/06/14 05:42:24;;;;;;;11.00;7.30;;;32.00;70.10;;;;;;7286425;19;20208;-80
2023/06/14 05:44:50;;;;;;;14.45;7.50;;;32.50;68.60;;;;;;7286995;19;20557;-79
2023/06/14 05:47:16;;;;;;;11.05;7.00;;;32.80;66.70;;;;;;7286197;19;20189;-78
2023/06/14 05:49:42;;;;;;;12.27;6.65;;;32.80;66.40;;;;;;7307259;19;20181;-78
2023/06/14 05:52:08;;;;;;;12.95;7.18;;;32.30;68.00;;;;;;7287077;19;20192;-78
2023/06/14 05:54:34;;;;;;;14.57;7.25;;;32.10;68.10;;;;;;7286638;19;20198;-78
2023/06/14 05:57:01;;;;;;;12.15;6.93;;;32.60;67.70;;;;;;7287070;19;20504;-78
2023/06/14 05:59:29;;;;;;;11.55;7.10;;;32.60;65.10;;;;;;7283967;19;20197;-78
2023/06/14 06:01:55;;;;;;;10.95;6.40;;;32.40;66.40;;;;;;7286990;19;20571;-78
2023/06/14 06:04:21;;;;;;;12.90;7.10;;;32.60;65.10;;;;;;7286498;19;20237;-78
2023/06/14 06:06:47;;;;;;;13.75;7.22;;;32.60;65.20;;;;;;7282773;19;20177;-78
2023/06/14 06:09:14;;;;;;;12.10;6.90;;;32.80;64.60;;;;;;7307538;19;20275;-79
2023/06/14 06:11:40;;;;;;;12.00;7.35;;;33.10;64.80;;;;;;7285602;19;20248;-78
2023/06/14 06:14:06;;;;;;;12.60;7.15;;;32.00;61.30;;;;;;7285459;19;20584;-78
2023/06/14 06:16:32;;;;;;;12.10;6.95;;;31.70;65.00;;;;;;7285903;19;20192;-79
2023/06/14 06:18:59;;;;;;;13.43;6.75;;;31.60;63.20;;;;;;7285728;19;20177;-80
2023/06/14 06:21:24;;;;;;;13.68;7.05;;;31.20;63.60;;;;;;7285600;19;20248;-79
2023/06/14 06:23:50;;;;;;;12.10;6.90;;;31.00;62.10;;;;;;7287828;19;20189;-80
2023/06/14 06:26:19;;;;;;;11.60;6.32;;;31.30;64.20;;;;;;7287297;19;20218;-80
2023/06/14 06:28:45;;;;;;;13.82;7.07;;;31.70;63.10;;;;;;7286648;19;20181;-80
2023/06/14 06:31:11;;;;;;;14.65;6.78;;;32.10;62.30;;;;;;7308162;19;20189;-80
2023/06/14 06:33:37;;;;;;;11.57;6.53;;;32.70;62.20;;;;;;7285740;19;20544;-80
2023/06/14 06:36:02;;;;;;;13.40;6.45;;;33.40;61.90;;;;;;7283976;19;20185;-79
2023/06/14 06:38:28;;;;;;;11.38;6.22;;;34.10;61.40;;;;;;7286597;19;20192;-80
2023/06/14 06:40:54;;;;;;;11.98;6.13;;;34.30;58.40;;;;;;7284777;19;20184;-80
2023/06/14 06:43:20;;;;;;;11.45;6.63;;;34.50;58.60;;;;;;7284499;19;20191;-81
2023/06/14 06:45:47;;;;;;;12.15;6.38;;;34.90;57.90;;;;;;7285307;19;20181;-80
2023/06/14 06:48:13;;;;;;;11.82;6.30;;;34.70;58.80;;;;;;7304674;19;20192;-78
2023/06/14 06:50:39;;;;;;;11.32;6.57;;;34.40;57.00;;;;;;7294480;19;20181;-81
2023/06/14 06:53:06;;;;;;;11.95;6.50;;;34.30;58.00;;;;;;7286127;19;20329;-80
2023/06/14 06:55:32;;;;;;;9.35;6.28;;;34.20;57.40;;;;;;7284915;19;20189;-80
2023/06/14 06:57:58;;;;;;;10.75;6.15;;;33.90;58.10;;;;;;7284945;19;20191;-81
2023/06/14 07:00:24;;;;;;;9.90;5.72;;;34.00;57.60;;;;;;7283844;19;20541;-80
2023/06/14 07:02:50;;;;;;;12.00;6.50;;;33.80;58.50;;;;;;7284655;19;20213;-80
2023/06/14 07:05:16;;;;;;;10.02;6.18;;;34.00;58.50;;;;;;7284952;19;20204;-80
2023/06/14 07:07:42;;;;;;;9.32;5.82;;;34.10;58.30;;;;;;7305922;19;20772;-80
2023/06/14 07:10:08;;;;;;;8.68;6.18;;;33.90;57.10;;;;;;7285144;19;20618;-81
2023/06/14 07:12:38;;;;;;;11.02;6.18;;;33.40;57.00;;;;;;7285418;19;20231;-79
2023/06/14 07:15:08;;;;;;;10.00;6.35;;;33.50;58.30;;;;;;7284688;19;20178;-79
2023/06/14 07:17:34;;;;;;;12.65;6.28;;;32.70;58.70;;;;;;7288743;19;20194;-79
2023/06/14 07:20:11;;;;;;;9.57;5.75;;;32.30;59.10;;;;;;7292023;19;20188;-79
2023/06/14 07:22:42;;;;;;;10.25;5.85;;;32.70;58.90;;;;;;7288474;19;20191;-79
2023/06/14 07:25:09;;;;;;;12.57;6.15;;;33.30;58.60;;;;;;7292103;19;20181;-80
2023/06/14 07:27:35;;;;;;;10.60;6.03;;;33.70;56.60;;;;;;7291866;19;20181;-81
2023/06/14 07:30:01;;;;;;;10.50;5.63;;;33.90;56.70;;;;;;7290356;19;20226;-80
2023/06/14 07:32:27;;;;;;;9.20;5.72;;;34.00;56.40;;;;;;7287722;19;20193;-80
2023/06/14 07:34:52;;;;;;;11.55;6.07;;;34.10;55.10;;;;;;7291120;19;20213;-80
2023/06/14 07:37:18;;;;;;;12.75;5.57;;;34.60;55.80;;;;;;7291001;19;20188;-80
2023/06/14 07:39:43;;;;;;;11.82;5.85;;;35.80;55.00;;;;;;7307139;19;20660;-79
2023/06/14 07:42:10;;;;;;;10.88;6.13;;;36.80;53.80;;;;;;7302107;19;20189;-81
2023/06/14 07:44:36;;;;;;;9.48;5.65;;;37.10;53.60;;;;;;7291422;19;20624;-80
2023/06/14 07:47:02;;;;;;;10.40;5.65;;;37.00;52.90;;;;;;7290380;19;20200;-80
2023/06/14 07:49:27;;;;;;;10.50;5.95;;;37.40;52.90;;;;;;7289926;19;20651;-80
2023/06/14 07:51:53;;;;;;;11.60;6.30;;;37.90;51.90;;;;;;7290119;19;20185;-80
2023/06/14 07:54:24;;;;;;;13.00;5.47;;;37.80;51.50;;;;;;7287916;19;20213;-80
2023/06/14 07:56:50;;;;;;;10.10;5.43;;;37.20;52.10;;;;;;7289772;19;20196;-81
2023/06/14 07:59:16;;;;;;;11.88;6.22;;;38.30;51.80;;;;;;7288264;19;20188;-80
2023/06/14 08:01:46;;;;;;;11.90;5.90;;;37.80;50.80;;;;;;7308830;19;20199;-81
2023/06/14 08:04:15;;;;;;;11.02;5.57;;;38.10;50.60;;;;;;7288393;19;20532;-81
2023/06/14 08:06:44;;;;;;;8.68;5.63;;;38.10;51.20;;;;;;7289491;19;20187;-81
2023/06/14 08:09:11;;;;;;;11.18;5.60;;;37.30;49.80;;;;;;7288519;19;20260;-81
2023/06/14 08:11:37;;;;;;;11.77;5.65;;;37.60;49.60;;;;;;7277287;19;20208;-80
2023/06/14 08:14:02;;;;;;;8.82;5.20;;;37.60;49.90;;;;;;7289880;19;20526;-80
2023/06/14 08:16:28;;;;;;;11.13;5.65;;;37.80;49.60;;;;;;7290153;19;20192;-80
2023/06/14 08:18:55;;;;;;;9.77;5.72;;;37.10;49.40;;;;;;7289340;19;20185;-80
2023/06/14 08:21:21;;;;;;;10.10;5.43;;;37.00;49.60;;;;;;7289200;19;20199;-80
2023/06/14 08:23:47;;;;;;;12.98;5.35;;;38.00;48.60;;;;;;7288737;19;20260;-80
2023/06/14 08:26:13;;;;;;;8.60;5.35;;;39.00;48.10;;;;;;7312811;19;20658;-80
2023/06/14 08:28:38;;;;;;;10.13;5.22;;;39.00;47.00;;;;;;7287400;19;20236;-80
2023/06/14 08:31:04;;;;;;;11.38;5.13;;;39.30;47.50;;;;;;7288472;19;20181;-80
2023/06/14 08:33:33;;;;;;;10.40;5.53;;;38.30;47.30;;;;;;7288017;19;20202;-80
2023/06/14 08:35:58;;;;;;;10.75;5.43;;;38.20;48.00;;;;;;7289078;19;20184;-82
2023/06/14 08:38:24;;;;;;;9.82;5.30;;;38.50;48.90;;;;;;7288526;19;20184;-81
2023/06/14 08:40:52;;;;;;;11.27;5.30;;;39.30;47.90;;;;;;7289402;19;20200;-81
2023/06/14 08:43:18;;;;;;;9.52;5.25;;;40.30;47.40;;;;;;7289838;19;20185;-81
2023/06/14 08:45:47;;;;;;;9.73;5.18;;;41.60;45.20;;;;;;7305403;19;20192;-80
2023/06/14 08:48:17;;;;;;;8.32;4.72;;;41.70;43.70;;;;;;7311186;19;20203;-81
2023/06/14 08:50:45;;;;;;;7.97;5.20;;;39.70;43.50;;;;;;7288191;19;20615;-81
2023/06/14 08:53:20;;;;;;;10.38;5.30;;;38.90;45.00;;;;;;7288533;19;20184;-81
2023/06/14 08:55:47;;;;;;;8.10;5.20;;;39.20;44.80;;;;;;7268480;19;20218;-81
2023/06/14 08:58:14;;;;;;;9.40;4.80;;;39.50;44.90;;;;;;7311395;19;20183;-82
2023/06/14 09:00:41;;;;;;;10.50;4.68;;;39.20;44.50;;;;;;7288345;19;20189;-80
2023/06/14 09:03:13;;;;;;;9.93;5.25;;;38.40;44.40;;;;;;7287837;19;20185;-79
2023/06/14 09:05:38;;;;;;;8.52;5.20;;;37.60;43.60;;;;;;7287754;19;20203;-81
2023/06/14 09:08:05;;;;;;;8.55;4.80;;;37.20;44.80;;;;;;7287875;19;20674;-80
2023/06/14 09:10:36;;;;;;;10.02;5.32;;;37.40;45.50;;;;;;7287207;19;20193;-81
2023/06/14 09:13:03;;;;;;;9.57;5.53;;;37.80;45.40;;;;;;7287650;19;20192;-81
2023/06/14 09:15:29;;;;;;;10.98;5.15;;;38.20;45.00;;;;;;7288252;19;20203;-81
2023/06/14 09:17:55;;;;;;;10.27;5.22;;;37.70;46.00;;;;;;7288253;19;20188;-81
2023/06/14 09:20:24;;;;;;;9.52;5.50;;;37.20;47.00;;;;;;7287617;19;20199;-80
2023/06/14 09:22:50;;;;;;;13.65;6.05;;;36.90;46.80;;;;;;7287009;19;20510;-79
2023/06/14 09:25:15;;;;;;;12.27;5.53;;;37.00;46.40;;;;;;7289735;19;20492;-78
2023/06/14 09:27:42;;;;;;;12.57;5.38;;;38.00;47.10;;;;;;7309540;19;20224;-79
2023/06/14 09:30:11;;;;;;;14.48;5.70;;;37.70;45.30;;;;;;7287899;19;20189;-80
2023/06/14 09:32:39;;;;;;;13.13;5.75;;;36.70;47.20;;;;;;7289431;19;20196;-79
2023/06/14 09:35:07;;;;;;;10.55;5.68;;;36.30;48.70;;;;;;7286665;19;20283;-79
2023/06/14 09:37:33;;;;;;;15.50;5.88;;;36.10;46.70;;;;;;7286326;19;20196;-79
2023/06/14 09:39:59;;;;;;;9.55;5.57;;;35.60;49.10;;;;;;7283632;19;20185;-79
2023/06/14 09:42:25;;;;;;;11.98;4.88;;;35.60;49.10;;;;;;7287348;19;20196;-80
2023/06/14 09:44:53;;;;;;;10.70;5.32;;;36.40;48.80;;;;;;7286708;19;20220;-79
2023/06/14 09:47:20;;;;;;;10.07;5.60;;;35.80;46.90;;;;;;7286773;19;20209;-79
2023/06/14 09:49:46;;;;;;;11.27;5.88;;;35.60;48.30;;;;;;7285581;19;20240;-78
2023/06/14 09:52:16;;;;;;;11.73;5.78;;;35.00;49.10;;;;;;7308170;19;20641;-79
2023/06/14 09:54:46;;;;;;;10.65;5.38;;;34.40;48.70;;;;;;7286744;19;20185;-80
2023/06/14 09:57:13;;;;;;;10.23;5.60;;;34.40;48.90;;;;;;7287489;19;20210;-81
2023/06/14 09:59:42;;;;;;;10.65;5.25;;;35.10;49.10;;;;;;7287255;19;20184;-81
2023/06/14 10:02:25;;;;;;;9.73;5.20;;;36.30;49.20;;;;;;7286852;19;20212;-81
2023/06/14 10:05:00;;;;;;;10.43;5.55;;;36.40;48.40;;;;;;7183924;19;2004593;-81
2023/06/14 10:07:30;;;;;;;8.82;5.53;;;35.90;48.30;;;;;;7285479;19;20196;-81
2023/06/14 10:09:56;;;;;;;11.48;5.15;;;35.60;48.00;;;;;;7286082;19;20202;-81
2023/06/14 10:12:22;;;;;;;12.20;5.53;;;35.40;48.40;;;;;;7285674;19;20211;-81
2023/06/14 10:14:50;;;;;;;10.95;5.18;;;35.20;48.80;;;;;;7285211;19;20189;-81
2023/06/14 10:17:48;;;;;;;11.00;5.15;;;35.70;48.60;;;;;;7286707;19;20188;-80
2023/06/14 10:20:28;;;;;;;8.13;5.32;;;35.40;47.50;;;;;;7286321;19;20188;-81
2023/06/14 10:23:18;;;;;;;13.70;5.80;;;35.00;48.60;;;;;;7183339;19;2006217;-81
2023/06/14 10:25:44;;;;;;;11.05;5.78;;;35.10;49.50;;;;;;7283091;19;20185;-79
2023/06/14 10:28:17;;;;;;;9.30;5.38;;;35.00;48.80;;;;;;7297886;19;20205;-81
2023/06/14 10:31:03;;;;;;;11.18;5.90;;;35.00;50.40;;;;;;7287446;19;20662;-81
2023/06/14 10:33:30;;;;;;;11.07;5.85;;;34.90;50.00;;;;;;7183344;19;2005638;-81
2023/06/14 10:36:27;;;;;;;13.50;5.50;;;36.10;49.40;;;;;;7283907;19;20185;-81
2023/06/14 10:39:16;;;;;;;9.48;5.43;;;36.50;49.30;;;;;;7182934;19;2005346;-80
2023/06/14 10:41:49;;;;;;;11.02;5.82;;;35.30;47.00;;;;;;7286125;19;20719;-81
2023/06/14 10:44:21;;;;;;;12.95;5.00;;;35.00;47.50;;;;;;7270357;19;20591;-80
2023/06/14 10:46:54;;;;;;;8.82;5.43;;;35.20;48.30;;;;;;7285673;19;20189;-80
2023/06/14 10:49:43;;;;;;;10.27;5.20;;;35.30;46.40;;;;;;7285743;19;20657;-80
2023/06/14 10:52:18;;;;;;;11.20;5.88;;;35.70;47.10;;;;;;7282896;19;20189;-81
2023/06/14 10:55:12;;;;;;;10.55;5.25;;;35.60;47.00;;;;;;7283799;19;20231;-79
2023/06/14 10:57:46;;;;;;;10.93;5.47;;;35.40;46.50;;;;;;7284895;19;20708;-81
2023/06/14 11:00:16;;;;;;;11.18;4.90;;;35.40;46.60;;;;;;7284883;19;20528;-81
2023/06/14 11:02:59;;;;;;;10.27;5.30;;;36.10;47.60;;;;;;7272140;19;20189;-80
2023/06/14 11:05:26;;;;;;;11.48;5.10;;;36.70;45.70;;;;;;7285399;19;20188;-81
2023/06/14 11:08:28;;;;;;;9.55;4.80;;;36.20;45.90;;;;;;7283594;19;20656;-80
2023/06/14 11:10:59;;;;;;;8.63;4.65;;;36.10;45.30;;;;;;7182729;19;2004731;-80
2023/06/14 11:13:26;;;;;;;9.18;5.05;;;36.80;45.60;;;;;;7283371;19;20193;-81
2023/06/14 11:15:57;;;;;;;8.23;4.57;;;36.40;44.80;;;;;;7281581;19;20724;-80
2023/06/14 11:18:27;;;;;;;10.20;5.07;;;35.80;45.30;;;;;;7284393;19;20264;-80
2023/06/14 11:20:53;;;;;;;11.23;5.43;;;35.50;45.50;;;;;;7284722;19;20217;-80
2023/06/14 11:23:19;;;;;;;10.55;4.60;;;35.80;45.90;;;;;;7284302;19;20284;-81
2023/06/14 11:25:51;;;;;;;8.07;4.85;;;36.40;46.30;;;;;;7298207;19;20222;-79
2023/06/14 11:28:19;;;;;;;10.45;4.70;;;35.70;45.70;;;;;;7284151;19;20306;-80
2023/06/14 11:30:46;;;;;;;10.80;5.07;;;35.40;45.50;;;;;;7301547;19;20185;-79
2023/06/14 11:33:17;;;;;;;9.55;4.70;;;34.90;46.40;;;;;;7305358;19;20184;-80
2023/06/14 11:35:42;;;;;;;8.75;4.75;;;35.10;45.00;;;;;;7284453;19;20184;-80
2023/06/14 11:38:10;;;;;;;8.23;4.80;;;35.20;45.10;;;;;;7281400;19;20673;-80
2023/06/14 11:40:38;;;;;;;11.23;4.88;;;35.70;45.70;;;;;;7284069;19;20190;-81
2023/06/14 11:43:04;;;;;;;8.82;5.03;;;36.10;46.10;;;;;;7283547;19;20215;-80
2023/06/14 11:45:31;;;;;;;14.77;5.40;;;36.40;45.70;;;;;;7284391;19;20189;-81
2023/06/14 11:47:58;;;;;;;8.45;4.63;;;35.90;44.30;;;;;;7283736;19;20189;-80
2023/06/14 11:50:24;;;;;;;6.80;4.50;;;36.00;45.10;;;;;;7283766;19;20184;-80
2023/06/14 11:52:54;;;;;;;9.50;4.78;;;36.90;46.10;;;;;;7283110;19;20188;-80
2023/06/14 11:55:20;;;;;;;8.27;4.70;;;37.50;44.00;;;;;;7283663;19;20181;-80
2023/06/14 11:57:46;;;;;;;10.73;5.30;;;37.30;45.50;;;;;;7286687;19;20226;-80
2023/06/14 12:00:15;;;;;;;7.75;4.70;;;37.70;43.40;;;;;;7304045;19;20181;-80
2023/06/14 12:02:41;;;;;;;10.50;4.63;;;37.70;44.50;;;;;;7283139;19;20221;-81
2023/06/14 12:05:10;;;;;;;11.27;4.93;;;37.20;43.80;;;;;;7289446;19;20174;-80
2023/06/14 12:07:37;;;;;;;7.03;4.28;;;35.40;43.20;;;;;;7291137;19;20604;-80
2023/06/14 12:10:07;;;;;;;7.88;4.65;;;34.00;45.30;;;;;;7294408;19;20199;-81
2023/06/14 12:12:37;;;;;;;8.65;4.85;;;33.10;46.80;;;;;;7298613;19;20188;-81
2023/06/14 12:15:07;;;;;;;9.93;4.32;;;32.60;47.80;;;;;;7292809;19;20192;-81
2023/06/14 12:17:41;;;;;;;9.30;4.20;;;32.30;49.80;;;;;;7289357;19;20226;-81
2023/06/14 12:20:10;;;;;;;11.15;4.57;;;31.80;48.60;;;;;;7289720;19;20192;-80
2023/06/14 12:22:47;;;;;;;11.88;4.78;;;31.40;49.60;;;;;;7289002;19;20181;-80
2023/06/14 12:25:32;;;;;;;9.88;4.57;;;31.20;50.10;;;;;;7288369;19;20191;-80
2023/06/14 12:28:09;;;;;;;9.48;4.70;;;31.30;50.10;;;;;;7186761;19;2005003;-81
2023/06/14 12:30:38;;;;;;;10.88;4.93;;;31.30;49.30;;;;;;7289327;19;20279;-80
2023/06/14 12:33:05;;;;;;;8.43;4.57;;;30.90;49.10;;;;;;7289396;19;20572;-84
2023/06/14 12:35:31;;;;;;;12.70;4.90;;;30.70;50.60;;;;;;7288129;19;20526;-82
2023/06/14 12:37:56;;;;;;;10.55;4.93;;;30.60;51.60;;;;;;7287785;19;20201;-80
2023/06/14 12:40:23;;;;;;;7.55;4.40;;;30.70;52.00;;;;;;7287611;19;20204;-80
2023/06/14 12:42:49;;;;;;;14.25;5.20;;;30.60;50.10;;;;;;7288146;19;20196;-80